sensor_id;sensor_type;location;lat;lon;timestamp;temperature;humidity
7936;DHT22;4013;49.744;8.118;2023-11-19T05:31:52;10.90;99.90
7936;DHT22;4013;49.744;8.118;2023-11-19T05:34:22;10.90;99.90
7936;DHT22;4013;49.744;8.118;2023-11-19T05:36:48;11.00;99.90
7936;DHT22;4013;49.744;8.118;2023-11-19T05:39:16;11.00;99.90
7936;DHT22;4013;49.744;8.118;2023-11-19T05:41:44;11.10;99.90
7936;DHT22;4013;49.744;8.118;2023-11-19T05:44:10;11.10;99.90
7936;DHT22;4013;49.744;8.118;2023-11-19T05:46:37;11.20;99.90
7936;DHT22;4013;49.744;8.118;2023-11-19T05:49:09;11.20;99.90
7936;DHT22;4013;49.744;8.118;2023-11-19T05:51:36;11.20;99.90
7936;DHT22;4013;49.744;8.118;2023-11-19T05:54:04;11.20;99.90
7936;DHT22;4013;49.744;8.118;2023-11-19T05:56:32;11.20;99.90
7936;DHT22;4013;49.744;8.118;2023-11-19T05:58:59;11.10;99.90
7936;DHT22;4013;49.744;8.118;2023-11-19T06:01:28;11.10;99.90
7936;DHT22;4013;49.744;8.118;2023-11-19T06:03:55;11.20;99.90
7936;DHT22;4013;49.744;8.118;2023-11-19T06:06:24;11.20;99.90
7936;DHT22;4013;49.744;8.118;2023-11-19T06:08:51;11.20;99.90
7936;DHT22;4013;49.744;8.118;2023-11-19T06:11:17;11.30;99.90
7936;DHT22;4013;49.744;8.118;2023-11-19T06:13:46;11.30;99.90
7936;DHT22;4013;49.744;8.118;2023-11-19T06:16:13;11.30;99.90
7936;DHT22;4013;49.744;8.118;2023-11-19T06:18:40;11.40;99.90
7936;DHT22;4013;49.744;8.118;2023-11-19T06:21:07;11.50;99.90
7936;DHT22;4013;49.744;8.118;2023-11-19T06:23:35;11.50;99.90
7936;DHT22;4013;49.744;8.118;2023-11-19T06:26:02;11.50;99.90
7936;DHT22;4013;49.744;8.118;2023-11-19T06:28:30;11.50;99.90
7936;DHT22;4013;49.744;8.118;2023-11-19T06:30:57;11.50;99.90
7936;DHT22;4013;49.744;8.118;2023-11-19T06:33:24;11.50;99.90
7936;DHT22;4013;49.744;8.118;2023-11-19T06:35:52;11.50;99.90
7936;DHT22;4013;49.744;8.118;2023-11-19T06:38:21;11.50;99.90
7936;DHT22;4013;49.744;8.118;2023-11-19T06:40:49;11.50;99.90
7936;DHT22;4013;49.744;8.118;2023-11-19T06:43:16;11.50;99.90
7936;DHT22;4013;49.744;8.118;2023-11-19T06:45:43;11.50;99.90
7936;DHT22;4013;49.744;8.118;2023-11-19T06:48:10;11.50;99.90
7936;DHT22;4013;49.744;8.118;2023-11-19T06:50:36;11.50;99.90
7936;DHT22;4013;49.744;8.118;2023-11-19T06:53:03;11.50;99.90
7936;DHT22;4013;49.744;8.118;2023-11-19T06:55:31;11.50;99.90
7936;DHT22;4013;49.744;8.118;2023-11-19T06:58:00;11.50;99.90
7936;DHT22;4013;49.744;8.118;2023-11-19T07:00:28;11.50;99.90
7936;DHT22;4013;49.744;8.118;2023-11-19T07:02:54;11.50;99.90
7936;DHT22;4013;49.744;8.118;2023-11-19T07:05:21;11.50;99.90
7936;DHT22;4013;49.744;8.118;2023-11-19T07:07:49;11.50;99.90
7936;DHT22;4013;49.744;8.118;2023-11-19T07:10:16;11.50;99.90
7936;DHT22;4013;49.744;8.118;2023-11-19T07:12:43;11.50;99.90
7936;DHT22;4013;49.744;8.118;2023-11-19T07:15:11;11.50;99.90
7936;DHT22;4013;49.744;8.118;2023-11-19T07:17:39;11.50;99.90
7936;DHT22;4013;49.744;8.118;2023-11-19T07:20:06;11.50;99.90
7936;DHT22;4013;49.744;8.118;2023-11-19T07:22:34;11.60;99.90
7936;DHT22;4013;49.744;8.118;2023-11-19T07:25:00;11.60;99.90
7936;DHT22;4013;49.744;8.118;2023-11-19T07:27:27;11.60;99.90
7936;DHT22;4013;49.744;8.118;2023-11-19T07:29:54;11.60;99.90
7936;DHT22;4013;49.744;8.118;2023-11-19T07:32:22;11.60;99.90
7936;DHT22;4013;49.744;8.118;2023-11-19T07:34:49;11.70;99.90
7936;DHT22;4013;49.744;8.118;2023-11-19T07:37:16;11.70;99.90
7936;DHT22;4013;49.744;8.118;2023-11-19T07:39:43;11.80;99.90
7936;DHT22;4013;49.744;8.118;2023-11-19T07:42:11;11.80;99.90
7936;DHT22;4013;49.744;8.118;2023-11-19T07:44:38;11.80;99.90
7936;DHT22;4013;49.744;8.118;2023-11-19T07:47:05;11.70;99.90
7936;DHT22;4013;49.744;8.118;2023-11-19T07:49:33;11.80;99.90
7936;DHT22;4013;49.744;8.118;2023-11-19T07:52:00;11.80;99.90
7936;DHT22;4013;49.744;8.118;2023-11-19T07:54:28;11.80;99.90
7936;DHT22;4013;49.744;8.118;2023-11-19T07:56:55;11.80;99.90
7936;DHT22;4013;49.744;8.118;2023-11-19T07:59:22;11.90;99.90
7936;DHT22;4013;49.744;8.118;2023-11-19T08:01:49;11.90;99.90
7936;DHT22;4013;49.744;8.118;2023-11-19T08:04:14;12.00;99.90
7936;DHT22;4013;49.744;8.118;2023-11-19T08:06:43;12.00;99.90
7936;DHT22;4013;49.744;8.118;2023-11-19T08:09:11;12.00;99.90
7936;DHT22;4013;49.744;8.118;2023-11-19T08:11:39;12.00;99.90
7936;DHT22;4013;49.744;8.118;2023-11-19T08:14:06;12.10;99.90
7936;DHT22;4013;49.744;8.118;2023-11-19T08:16:34;12.20;99.90
7936;DHT22;4013;49.744;8.118;2023-11-19T08:19:03;12.30;99.90
7936;DHT22;4013;49.744;8.118;2023-11-19T08:21:30;12.40;99.90
7936;DHT22;4013;49.744;8.118;2023-11-19T08:23:58;12.50;99.90
7936;DHT22;4013;49.744;8.118;2023-11-19T08:26:25;12.50;99.90
7936;DHT22;4013;49.744;8.118;2023-11-19T08:28:51;12.60;99.90
7936;DHT22;4013;49.744;8.118;2023-11-19T08:31:18;12.60;99.90
7936;DHT22;4013;49.744;8.118;2023-11-19T08:33:45;12.70;99.90
7936;DHT22;4013;49.744;8.118;2023-11-19T08:36:15;12.70;99.90
7936;DHT22;4013;49.744;8.118;2023-11-19T08:38:42;12.80;99.90
7936;DHT22;4013;49.744;8.118;2023-11-19T08:41:10;12.90;99.90
7936;DHT22;4013;49.744;8.118;2023-11-19T08:43:37;12.90;99.90
7936;DHT22;4013;49.744;8.118;2023-11-19T08:46:08;13.00;99.90
7936;DHT22;4013;49.744;8.118;2023-11-19T08:48:35;13.00;99.90
7936;DHT22;4013;49.744;8.118;2023-11-19T08:51:02;13.10;99.90
7936;DHT22;4013;49.744;8.118;2023-11-19T08:53:30;13.10;99.90
7936;DHT22;4013;49.744;8.118;2023-11-19T08:55:57;13.20;99.90
7936;DHT22;4013;49.744;8.118;2023-11-19T08:58:25;13.30;99.90
7936;DHT22;4013;49.744;8.118;2023-11-19T09:00:52;13.30;99.90
7936;DHT22;4013;49.744;8.118;2023-11-19T09:03:18;13.30;99.90
7936;DHT22;4013;49.744;8.118;2023-11-19T09:05:45;13.40;99.90
7936;DHT22;4013;49.744;8.118;2023-11-19T09:08:12;13.40;99.90
7936;DHT22;4013;49.744;8.118;2023-11-19T09:10:41;13.40;99.90
7936;DHT22;4013;49.744;8.118;2023-11-19T09:13:07;13.40;99.90
7936;DHT22;4013;49.744;8.118;2023-11-19T09:15:36;13.40;99.90
7936;DHT22;4013;49.744;8.118;2023-11-19T09:18:02;13.50;99.90
7936;DHT22;4013;49.744;8.118;2023-11-19T09:20:30;13.50;99.90
7936;DHT22;4013;49.744;8.118;2023-11-19T09:23:03;13.50;99.90
7936;DHT22;4013;49.744;8.118;2023-11-19T09:25:30;13.60;99.90
7936;DHT22;4013;49.744;8.118;2023-11-19T09:27:57;13.60;99.90
7936;DHT22;4013;49.744;8.118;2023-11-19T09:30:24;13.70;99.90
7936;DHT22;4013;49.744;8.118;2023-11-19T09:32:52;13.70;99.90
7936;DHT22;4013;49.744;8.118;2023-11-19T09:35:19;13.60;99.90
7936;DHT22;4013;49.744;8.118;2023-11-19T09:37:46;13.60;99.90
7936;DHT22;4013;49.744;8.118;2023-11-19T09:40:13;13.70;99.90
7936;DHT22;4013;49.744;8.118;2023-11-19T09:42:42;13.70;99.90
7936;DHT22;4013;49.744;8.118;2023-11-19T09:45:10;13.60;99.90
7936;DHT22;4013;49.744;8.118;2023-11-19T09:47:39;13.60;99.90
7936;DHT22;4013;49.744;8.118;2023-11-19T09:50:10;13.70;99.90
7936;DHT22;4013;49.744;8.118;2023-11-19T09:52:40;13.80;99.90
7936;DHT22;4013;49.744;8.118;2023-11-19T09:55:07;13.60;99.90
7936;DHT22;4013;49.744;8.118;2023-11-19T09:57:35;13.50;99.90
7936;DHT22;4013;49.744;8.118;2023-11-19T10:00:02;13.40;99.90
7936;DHT22;4013;49.744;8.118;2023-11-19T10:02:33;13.40;99.90
7936;DHT22;4013;49.744;8.118;2023-11-19T10:05:01;13.40;99.90
7936;DHT22;4013;49.744;8.118;2023-11-19T10:07:32;13.40;99.90
7936;DHT22;4013;49.744;8.118;2023-11-19T10:09:59;13.50;99.90
7936;DHT22;4013;49.744;8.118;2023-11-19T10:12:27;13.50;99.90
7936;DHT22;4013;49.744;8.118;2023-11-19T10:14:54;13.50;99.90
7936;DHT22;4013;49.744;8.118;2023-11-19T10:17:22;13.40;99.90
7936;DHT22;4013;49.744;8.118;2023-11-19T10:19:54;13.50;99.90
7936;DHT22;4013;49.744;8.118;2023-11-19T10:22:22;13.50;99.90
7936;DHT22;4013;49.744;8.118;2023-11-19T10:24:50;13.50;99.90
7936;DHT22;4013;49.744;8.118;2023-11-19T10:27:17;13.60;99.90
7936;DHT22;4013;49.744;8.118;2023-11-19T10:29:44;13.70;99.90
7936;DHT22;4013;49.744;8.118;2023-11-19T10:32:12;13.80;99.90
7936;DHT22;4013;49.744;8.118;2023-11-19T10:34:39;13.90;99.90
7936;DHT22;4013;49.744;8.118;2023-11-19T10:37:07;14.00;99.90
7936;DHT22;4013;49.744;8.118;2023-11-19T10:42:17;14.00;99.90
7936;DHT22;4013;49.744;8.118;2023-11-19T10:44:43;14.00;99.90
7936;DHT22;4013;49.744;8.118;2023-11-19T10:47:10;14.10;99.90
7936;DHT22;4013;49.744;8.118;2023-11-19T10:49:38;14.10;99.90
7936;DHT22;4013;49.744;8.118;2023-11-19T10:52:06;14.20;99.90
7936;DHT22;4013;49.744;8.118;2023-11-19T10:54:34;14.20;99.90
7936;DHT22;4013;49.744;8.118;2023-11-19T10:57:01;14.30;99.90
7936;DHT22;4013;49.744;8.118;2023-11-19T10:59:30;14.30;99.90
7936;DHT22;4013;49.744;8.118;2023-11-19T11:01:57;14.40;99.90
7936;DHT22;4013;49.744;8.118;2023-11-19T11:04:26;14.40;99.90
7936;DHT22;4013;49.744;8.118;2023-11-19T11:06:57;14.40;99.90
7936;DHT22;4013;49.744;8.118;2023-11-19T11:09:25;14.50;99.90
7936;DHT22;4013;49.744;8.118;2023-11-19T11:11:53;14.50;99.90
7936;DHT22;4013;49.744;8.118;2023-11-19T11:14:21;14.50;99.90
7936;DHT22;4013;49.744;8.118;2023-11-19T11:16:50;14.50;99.90
7936;DHT22;4013;49.744;8.118;2023-11-19T11:19:17;14.50;99.90
7936;DHT22;4013;49.744;8.118;2023-11-19T11:21:45;14.50;99.90
7936;DHT22;4013;49.744;8.118;2023-11-19T11:24:22;14.60;99.90
7936;DHT22;4013;49.744;8.118;2023-11-19T11:29:40;14.60;99.90
7936;DHT22;4013;49.744;8.118;2023-11-19T11:32:13;14.50;99.90
7936;DHT22;4013;49.744;8.118;2023-11-19T11:34:53;14.50;99.90
7936;DHT22;4013;49.744;8.118;2023-11-19T11:37:25;14.50;99.90
7936;DHT22;4013;49.744;8.118;2023-11-19T11:39:52;14.50;99.90
7936;DHT22;4013;49.744;8.118;2023-11-19T11:42:35;14.50;99.90
7936;DHT22;4013;49.744;8.118;2023-11-19T11:45:02;14.60;99.90
7936;DHT22;4013;49.744;8.118;2023-11-19T11:50:20;14.80;99.90
7936;DHT22;4013;49.744;8.118;2023-11-19T11:55:33;14.90;99.90
7936;DHT22;4013;49.744;8.118;2023-11-19T11:58:01;14.90;99.90
7936;DHT22;4013;49.744;8.118;2023-11-19T12:00:29;14.90;99.90
7936;DHT22;4013;49.744;8.118;2023-11-19T12:02:56;14.90;99.90
7936;DHT22;4013;49.744;8.118;2023-11-19T12:05:25;14.80;99.90
7936;DHT22;4013;49.744;8.118;2023-11-19T12:07:54;14.80;99.90
7936;DHT22;4013;49.744;8.118;2023-11-19T12:10:21;14.70;99.90
7936;DHT22;4013;49.744;8.118;2023-11-19T12:12:48;14.70;99.90
7936;DHT22;4013;49.744;8.118;2023-11-19T12:15:15;14.70;99.90
7936;DHT22;4013;49.744;8.118;2023-11-19T12:17:50;14.70;99.90
7936;DHT22;4013;49.744;8.118;2023-11-19T12:20:18;14.80;99.90
7936;DHT22;4013;49.744;8.118;2023-11-19T12:22:46;14.80;99.90
7936;DHT22;4013;49.744;8.118;2023-11-19T12:25:14;14.90;99.90
7936;DHT22;4013;49.744;8.118;2023-11-19T12:27:43;14.90;99.90
7936;DHT22;4013;49.744;8.118;2023-11-19T12:30:11;15.00;99.90
7936;DHT22;4013;49.744;8.118;2023-11-19T12:32:38;15.00;99.90
7936;DHT22;4013;49.744;8.118;2023-11-19T12:35:06;15.00;99.90
7936;DHT22;4013;49.744;8.118;2023-11-19T12:37:42;15.00;99.90
7936;DHT22;4013;49.744;8.118;2023-11-19T12:40:17;15.00;99.90
7936;DHT22;4013;49.744;8.118;2023-11-19T12:42:45;15.00;99.90
7936;DHT22;4013;49.744;8.118;2023-11-19T12:45:12;14.80;99.90
7936;DHT22;4013;49.744;8.118;2023-11-19T12:47:39;14.80;99.90
7936;DHT22;4013;49.744;8.118;2023-11-19T12:50:07;14.80;99.90
7936;DHT22;4013;49.744;8.118;2023-11-19T12:52:34;14.80;99.90
7936;DHT22;4013;49.744;8.118;2023-11-19T12:55:01;14.80;99.90
7936;DHT22;4013;49.744;8.118;2023-11-19T12:57:39;14.70;99.90
7936;DHT22;4013;49.744;8.118;2023-11-19T13:00:07;14.70;99.90
7936;DHT22;4013;49.744;8.118;2023-11-19T13:02:45;14.60;99.90
7936;DHT22;4013;49.744;8.118;2023-11-19T13:05:23;14.60;99.90
7936;DHT22;4013;49.744;8.118;2023-11-19T13:07:49;14.70;99.90
7936;DHT22;4013;49.744;8.118;2023-11-19T13:10:16;14.80;99.90
7936;DHT22;4013;49.744;8.118;2023-11-19T13:12:45;14.90;99.90
7936;DHT22;4013;49.744;8.118;2023-11-19T13:15:25;15.70;99.90
7936;DHT22;4013;49.744;8.118;2023-11-19T13:17:52;16.70;99.90
7936;DHT22;4013;49.744;8.118;2023-11-19T13:20:19;16.80;99.90
7936;DHT22;4013;49.744;8.118;2023-11-19T13:22:53;16.70;99.90
7936;DHT22;4013;49.744;8.118;2023-11-19T13:25:20;16.90;99.90
7936;DHT22;4013;49.744;8.118;2023-11-19T13:27:51;16.40;99.90
7936;DHT22;4013;49.744;8.118;2023-11-19T13:30:17;15.90;99.90
7936;DHT22;4013;49.744;8.118;2023-11-19T13:32:44;16.00;99.90
7936;DHT22;4013;49.744;8.118;2023-11-19T13:35:12;15.90;99.90
7936;DHT22;4013;49.744;8.118;2023-11-19T13:37:39;15.30;99.90
7936;DHT22;4013;49.744;8.118;2023-11-19T13:40:06;15.20;99.90
7936;DHT22;4013;49.744;8.118;2023-11-19T13:42:35;15.00;99.90
7936;DHT22;4013;49.744;8.118;2023-11-19T13:45:04;14.90;99.90
7936;DHT22;4013;49.744;8.118;2023-11-19T13:47:34;14.80;99.90
7936;DHT22;4013;49.744;8.118;2023-11-19T13:50:01;14.60;99.90
7936;DHT22;4013;49.744;8.118;2023-11-19T13:52:31;14.50;99.90
7936;DHT22;4013;49.744;8.118;2023-11-19T13:54:58;14.40;99.90
7936;DHT22;4013;49.744;8.118;2023-11-19T13:57:25;14.30;99.90
7936;DHT22;4013;49.744;8.118;2023-11-19T13:59:52;14.20;99.90
7936;DHT22;4013;49.744;8.118;2023-11-19T14:02:20;14.10;99.90
7936;DHT22;4013;49.744;8.118;2023-11-19T14:04:47;14.00;99.90
7936;DHT22;4013;49.744;8.118;2023-11-19T14:07:14;14.00;99.90
7936;DHT22;4013;49.744;8.118;2023-11-19T14:09:41;13.90;99.90
7936;DHT22;4013;49.744;8.118;2023-11-19T14:12:08;13.90;99.90
7936;DHT22;4013;49.744;8.118;2023-11-19T14:14:38;13.80;99.90
7936;DHT22;4013;49.744;8.118;2023-11-19T14:17:07;13.80;99.90
7936;DHT22;4013;49.744;8.118;2023-11-19T14:19:36;13.70;99.90
7936;DHT22;4013;49.744;8.118;2023-11-19T14:22:03;13.60;99.90
7936;DHT22;4013;49.744;8.118;2023-11-19T14:24:30;13.60;99.90
7936;DHT22;4013;49.744;8.118;2023-11-19T14:26:57;13.50;99.90
7936;DHT22;4013;49.744;8.118;2023-11-19T14:29:24;13.50;99.90
7936;DHT22;4013;49.744;8.118;2023-11-19T14:31:52;13.50;99.90
7936;DHT22;4013;49.744;8.118;2023-11-19T14:34:20;13.40;99.90
7936;DHT22;4013;49.744;8.118;2023-11-19T14:36:48;13.50;99.90
7936;DHT22;4013;49.744;8.118;2023-11-19T14:39:15;13.50;99.90
7936;DHT22;4013;49.744;8.118;2023-11-19T14:41:42;13.50;99.90
7936;DHT22;4013;49.744;8.118;2023-11-19T14:44:09;13.50;99.90
7936;DHT22;4013;49.744;8.118;2023-11-19T14:46:36;13.50;99.90
7936;DHT22;4013;49.744;8.118;2023-11-19T14:49:03;13.50;99.90
7936;DHT22;4013;49.744;8.118;2023-11-19T14:51:30;13.40;99.90
7936;DHT22;4013;49.744;8.118;2023-11-19T14:53:58;13.40;99.90
7936;DHT22;4013;49.744;8.118;2023-11-19T14:56:25;13.40;99.90
7936;DHT22;4013;49.744;8.118;2023-11-19T14:58:52;13.40;99.90
7936;DHT22;4013;49.744;8.118;2023-11-19T15:01:19;13.30;99.90
7936;DHT22;4013;49.744;8.118;2023-11-19T15:03:46;13.30;99.90
7936;DHT22;4013;49.744;8.118;2023-11-19T15:06:14;13.40;99.90
7936;DHT22;4013;49.744;8.118;2023-11-19T15:08:41;13.40;99.90
7936;DHT22;4013;49.744;8.118;2023-11-19T15:11:11;13.40;99.90
7936;DHT22;4013;49.744;8.118;2023-11-19T15:13:38;13.40;99.90
7936;DHT22;4013;49.744;8.118;2023-11-19T15:16:07;13.40;99.90
7936;DHT22;4013;49.744;8.118;2023-11-19T15:18:36;13.30;99.90
7936;DHT22;4013;49.744;8.118;2023-11-19T15:21:02;13.20;99.90
7936;DHT22;4013;49.744;8.118;2023-11-19T15:23:30;13.20;99.90
7936;DHT22;4013;49.744;8.118;2023-11-19T15:25:56;13.10;99.90
7936;DHT22;4013;49.744;8.118;2023-11-19T15:28:25;13.00;99.90
7936;DHT22;4013;49.744;8.118;2023-11-19T15:30:52;13.00;99.90
7936;DHT22;4013;49.744;8.118;2023-11-19T15:33:18;12.90;99.90
7936;DHT22;4013;49.744;8.118;2023-11-19T15:35:45;13.00;99.90
7936;DHT22;4013;49.744;8.118;2023-11-19T15:38:13;12.90;99.90
7936;DHT22;4013;49.744;8.118;2023-11-19T15:40:40;13.00;99.90
7936;DHT22;4013;49.744;8.118;2023-11-19T15:43:08;13.00;99.90
7936;DHT22;4013;49.744;8.118;2023-11-19T15:45:37;12.90;99.90
7936;DHT22;4013;49.744;8.118;2023-11-19T15:48:05;13.00;99.90
7936;DHT22;4013;49.744;8.118;2023-11-19T15:50:32;13.00;99.90
7936;DHT22;4013;49.744;8.118;2023-11-19T15:52:58;12.90;99.90
7936;DHT22;4013;49.744;8.118;2023-11-19T15:55:27;12.90;99.90
7936;DHT22;4013;49.744;8.118;2023-11-19T15:57:53;12.90;99.90
7936;DHT22;4013;49.744;8.118;2023-11-19T16:00:20;12.90;99.90
7936;DHT22;4013;49.744;8.118;2023-11-19T16:02:48;12.80;99.90
7936;DHT22;4013;49.744;8.118;2023-11-19T16:05:16;12.80;99.90
7936;DHT22;4013;49.744;8.118;2023-11-19T16:07:43;12.80;99.90
7936;DHT22;4013;49.744;8.118;2023-11-19T16:10:10;12.80;99.90
7936;DHT22;4013;49.744;8.118;2023-11-19T16:12:38;12.80;99.90
7936;DHT22;4013;49.744;8.118;2023-11-19T16:15:05;12.70;99.90
7936;DHT22;4013;49.744;8.118;2023-11-19T16:17:33;12.80;99.90
7936;DHT22;4013;49.744;8.118;2023-11-19T16:20:02;12.80;99.90
7936;DHT22;4013;49.744;8.118;2023-11-19T16:22:32;12.70;99.90
7936;DHT22;4013;49.744;8.118;2023-11-19T16:24:58;12.70;99.90
7936;DHT22;4013;49.744;8.118;2023-11-19T16:27:25;12.70;99.90
7936;DHT22;4013;49.744;8.118;2023-11-19T16:29:52;12.60;99.90
7936;DHT22;4013;49.744;8.118;2023-11-19T16:32:19;12.60;99.90
7936;DHT22;4013;49.744;8.118;2023-11-19T16:34:46;12.60;99.90
7936;DHT22;4013;49.744;8.118;2023-11-19T16:37:15;12.60;99.90
7936;DHT22;4013;49.744;8.118;2023-11-19T16:39:42;12.60;99.90
7936;DHT22;4013;49.744;8.118;2023-11-19T16:42:09;12.60;99.90
7936;DHT22;4013;49.744;8.118;2023-11-19T16:44:36;12.60;99.90
7936;DHT22;4013;49.744;8.118;2023-11-19T16:47:03;12.60;99.90
7936;DHT22;4013;49.744;8.118;2023-11-19T16:49:31;12.70;99.90
7936;DHT22;4013;49.744;8.118;2023-11-19T16:51:58;12.60;99.90
7936;DHT22;4013;49.744;8.118;2023-11-19T16:54:26;12.60;99.90
7936;DHT22;4013;49.744;8.118;2023-11-19T16:56:53;12.60;99.90
7936;DHT22;4013;49.744;8.118;2023-11-19T16:59:20;12.60;99.90
7936;DHT22;4013;49.744;8.118;2023-11-19T17:01:47;12.60;99.90
7936;DHT22;4013;49.744;8.118;2023-11-19T17:04:14;12.60;99.90
7936;DHT22;4013;49.744;8.118;2023-11-19T17:06:42;12.60;99.90
7936;DHT22;4013;49.744;8.118;2023-11-19T17:09:09;12.50;99.90
7936;DHT22;4013;49.744;8.118;2023-11-19T17:11:39;12.50;99.90
7936;DHT22;4013;49.744;8.118;2023-11-19T17:14:08;12.40;99.90
7936;DHT22;4013;49.744;8.118;2023-11-19T17:16:36;12.40;99.90
7936;DHT22;4013;49.744;8.118;2023-11-19T17:19:04;12.50;99.90
7936;DHT22;4013;49.744;8.118;2023-11-19T17:21:31;12.30;99.90
7936;DHT22;4013;49.744;8.118;2023-11-19T17:23:58;12.30;99.90
7936;DHT22;4013;49.744;8.118;2023-11-19T17:26:24;12.20;99.90
7936;DHT22;4013;49.744;8.118;2023-11-19T17:28:53;12.20;99.90
7936;DHT22;4013;49.744;8.118;2023-11-19T17:31:20;12.30;99.90
7936;DHT22;4013;49.744;8.118;2023-11-19T17:33:47;12.30;99.90
7936;DHT22;4013;49.744;8.118;2023-11-19T17:36:14;12.30;99.90
7936;DHT22;4013;49.744;8.118;2023-11-19T17:38:41;12.40;99.90
7936;DHT22;4013;49.744;8.118;2023-11-19T17:41:08;12.40;99.90
7936;DHT22;4013;49.744;8.118;2023-11-19T17:43:35;12.40;99.90
7936;DHT22;4013;49.744;8.118;2023-11-19T17:46:04;12.30;99.90
7936;DHT22;4013;49.744;8.118;2023-11-19T17:48:31;12.30;99.90
7936;DHT22;4013;49.744;8.118;2023-11-19T17:50:58;12.30;99.90
7936;DHT22;4013;49.744;8.118;2023-11-19T17:53:26;12.30;99.90
7936;DHT22;4013;49.744;8.118;2023-11-19T17:55:53;12.20;99.90
7936;DHT22;4013;49.744;8.118;2023-11-19T17:58:21;12.20;99.90
7936;DHT22;4013;49.744;8.118;2023-11-19T18:00:48;12.20;99.90
7936;DHT22;4013;49.744;8.118;2023-11-19T18:03:16;12.20;99.90
7936;DHT22;4013;49.744;8.118;2023-11-19T18:05:43;12.10;99.90
7936;DHT22;4013;49.744;8.118;2023-11-19T18:08:10;12.10;99.90
7936;DHT22;4013;49.744;8.118;2023-11-19T18:10:37;12.10;99.90
7936;DHT22;4013;49.744;8.118;2023-11-19T18:13:04;12.10;99.90
7936;DHT22;4013;49.744;8.118;2023-11-19T18:15:32;12.10;99.90
7936;DHT22;4013;49.744;8.118;2023-11-19T18:17:59;12.10;99.90
7936;DHT22;4013;49.744;8.118;2023-11-19T18:20:28;12.10;99.90
7936;DHT22;4013;49.744;8.118;2023-11-19T18:22:54;12.10;99.90
7936;DHT22;4013;49.744;8.118;2023-11-19T18:25:21;12.10;99.90
7936;DHT22;4013;49.744;8.118;2023-11-19T18:27:48;12.10;99.90
7936;DHT22;4013;49.744;8.118;2023-11-19T18:30:14;12.10;99.90
7936;DHT22;4013;49.744;8.118;2023-11-19T18:32:41;12.20;99.90
7936;DHT22;4013;49.744;8.118;2023-11-19T18:35:09;12.10;99.90
7936;DHT22;4013;49.744;8.118;2023-11-19T18:37:39;12.20;99.90
7936;DHT22;4013;49.744;8.118;2023-11-19T18:40:08;12.20;99.90
7936;DHT22;4013;49.744;8.118;2023-11-19T18:42:36;12.10;99.90
7936;DHT22;4013;49.744;8.118;2023-11-19T18:45:04;12.10;99.90
7936;DHT22;4013;49.744;8.118;2023-11-19T18:47:32;12.10;99.90
7936;DHT22;4013;49.744;8.118;2023-11-19T18:49:59;12.10;99.90
7936;DHT22;4013;49.744;8.118;2023-11-19T18:52:27;12.10;99.90
7936;DHT22;4013;49.744;8.118;2023-11-19T18:54:55;12.00;99.90
7936;DHT22;4013;49.744;8.118;2023-11-19T18:57:22;12.00;99.90
7936;DHT22;4013;49.744;8.118;2023-11-19T18:59:49;12.00;99.90
7936;DHT22;4013;49.744;8.118;2023-11-19T19:02:16;11.90;99.90
7936;DHT22;4013;49.744;8.118;2023-11-19T19:04:43;12.00;99.90
7936;DHT22;4013;49.744;8.118;2023-11-19T19:07:10;12.00;99.90
7936;DHT22;4013;49.744;8.118;2023-11-19T19:09:37;12.10;99.90
7936;DHT22;4013;49.744;8.118;2023-11-19T19:12:07;12.10;99.90
7936;DHT22;4013;49.744;8.118;2023-11-19T19:14:34;12.20;99.90
7936;DHT22;4013;49.744;8.118;2023-11-19T19:17:01;12.10;99.90
7936;DHT22;4013;49.744;8.118;2023-11-19T19:19:29;12.10;99.90
7936;DHT22;4013;49.744;8.118;2023-11-19T19:21:56;12.10;99.90
7936;DHT22;4013;49.744;8.118;2023-11-19T19:24:24;12.10;99.90
7936;DHT22;4013;49.744;8.118;2023-11-19T19:26:50;12.00;99.90
7936;DHT22;4013;49.744;8.118;2023-11-19T19:29:19;12.10;99.90
7936;DHT22;4013;49.744;8.118;2023-11-19T19:31:46;12.10;99.90
7936;DHT22;4013;49.744;8.118;2023-11-19T19:34:13;12.00;99.90
7936;DHT22;4013;49.744;8.118;2023-11-19T19:36:40;12.00;99.90
7936;DHT22;4013;49.744;8.118;2023-11-19T19:39:07;12.10;99.90
7936;DHT22;4013;49.744;8.118;2023-11-19T19:41:40;12.10;99.90
7936;DHT22;4013;49.744;8.118;2023-11-19T19:44:07;12.10;99.90
7936;DHT22;4013;49.744;8.118;2023-11-19T19:46:36;12.10;99.90
7936;DHT22;4013;49.744;8.118;2023-11-19T19:49:03;12.10;99.90
7936;DHT22;4013;49.744;8.118;2023-11-19T19:51:33;12.00;99.90
7936;DHT22;4013;49.744;8.118;2023-11-19T19:54:00;12.10;99.90
7936;DHT22;4013;49.744;8.118;2023-11-19T19:56:27;12.10;99.90
7936;DHT22;4013;49.744;8.118;2023-11-19T19:58:54;12.00;99.90
7936;DHT22;4013;49.744;8.118;2023-11-19T20:01:22;12.00;99.90
7936;DHT22;4013;49.744;8.118;2023-11-19T20:03:52;12.10;99.90
7936;DHT22;4013;49.744;8.118;2023-11-19T20:06:19;12.10;99.90
7936;DHT22;4013;49.744;8.118;2023-11-19T20:08:46;12.10;99.90
7936;DHT22;4013;49.744;8.118;2023-11-19T20:11:14;12.00;99.90
7936;DHT22;4013;49.744;8.118;2023-11-19T20:13:41;12.00;99.90
7936;DHT22;4013;49.744;8.118;2023-11-19T20:16:08;12.00;99.90
7936;DHT22;4013;49.744;8.118;2023-11-19T20:18:35;12.00;99.90
7936;DHT22;4013;49.744;8.118;2023-11-19T20:21:04;12.00;99.90
7936;DHT22;4013;49.744;8.118;2023-11-19T20:23:33;12.00;99.90
7936;DHT22;4013;49.744;8.118;2023-11-19T20:26:00;12.00;99.90
7936;DHT22;4013;49.744;8.118;2023-11-19T20:28:27;12.00;99.90
7936;DHT22;4013;49.744;8.118;2023-11-19T20:30:54;12.00;99.90
7936;DHT22;4013;49.744;8.118;2023-11-19T20:33:21;12.00;99.90
7936;DHT22;4013;49.744;8.118;2023-11-19T20:35:48;12.00;99.90
7936;DHT22;4013;49.744;8.118;2023-11-19T20:38:16;12.00;99.90
7936;DHT22;4013;49.744;8.118;2023-11-19T20:40:43;12.00;99.90
7936;DHT22;4013;49.744;8.118;2023-11-19T20:43:10;12.00;99.90
7936;DHT22;4013;49.744;8.118;2023-11-19T20:45:37;12.00;99.90
7936;DHT22;4013;49.744;8.118;2023-11-19T20:48:04;12.00;99.90
7936;DHT22;4013;49.744;8.118;2023-11-19T20:50:31;12.10;99.90
7936;DHT22;4013;49.744;8.118;2023-11-19T20:52:59;12.10;99.90
7936;DHT22;4013;49.744;8.118;2023-11-19T20:55:27;12.10;99.90
7936;DHT22;4013;49.744;8.118;2023-11-19T20:57:54;12.10;99.90
7936;DHT22;4013;49.744;8.118;2023-11-19T21:00:22;12.10;99.90
7936;DHT22;4013;49.744;8.118;2023-11-19T21:02:49;12.10;99.90
7936;DHT22;4013;49.744;8.118;2023-11-19T21:05:19;12.20;99.90
7936;DHT22;4013;49.744;8.118;2023-11-19T21:07:46;12.20;99.90
7936;DHT22;4013;49.744;8.118;2023-11-19T21:10:13;12.20;99.90
7936;DHT22;4013;49.744;8.118;2023-11-19T21:12:42;12.30;99.90
7936;DHT22;4013;49.744;8.118;2023-11-19T21:15:09;12.20;99.90
7936;DHT22;4013;49.744;8.118;2023-11-19T21:17:36;12.20;99.90
7936;DHT22;4013;49.744;8.118;2023-11-19T21:20:03;12.20;99.90
7936;DHT22;4013;49.744;8.118;2023-11-19T21:22:30;12.20;99.90
7936;DHT22;4013;49.744;8.118;2023-11-19T21:24:57;12.20;99.90
7936;DHT22;4013;49.744;8.118;2023-11-19T21:27:24;12.20;99.90
7936;DHT22;4013;49.744;8.118;2023-11-19T21:29:53;12.20;99.90
7936;DHT22;4013;49.744;8.118;2023-11-19T21:32:20;12.20;99.90
7936;DHT22;4013;49.744;8.118;2023-11-19T21:34:47;12.10;99.90
7936;DHT22;4013;49.744;8.118;2023-11-19T21:37:14;12.10;99.90
7936;DHT22;4013;49.744;8.118;2023-11-19T21:39:41;12.10;99.90
7936;DHT22;4013;49.744;8.118;2023-11-19T21:42:08;12.20;99.90
7936;DHT22;4013;49.744;8.118;2023-11-19T21:44:35;12.20;99.90
7936;DHT22;4013;49.744;8.118;2023-11-19T21:47:04;12.20;99.90